sensor_id;sensor_type;location;lat;lon;timestamp;temperature;humidity
15947;DHT22;8072;52.554;7.966;2023-11-21T00:01:04;7.10;99.90
15947;DHT22;8072;52.554;7.966;2023-11-21T00:03:31;7.10;99.90
15947;DHT22;8072;52.554;7.966;2023-11-21T00:05:57;7.10;99.90
15947;DHT22;8072;52.554;7.966;2023-11-21T00:08:22;7.10;99.90
15947;DHT22;8072;52.554;7.966;2023-11-21T00:10:48;7.10;99.90
15947;DHT22;8072;52.554;7.966;2023-11-21T00:13:15;7.10;99.90
15947;DHT22;8072;52.554;7.966;2023-11-21T00:15:42;7.10;99.90
15947;DHT22;8072;52.554;7.966;2023-11-21T00:18:08;7.10;99.90
15947;DHT22;8072;52.554;7.966;2023-11-21T00:20:34;7.00;99.90
15947;DHT22;8072;52.554;7.966;2023-11-21T00:23:02;7.00;99.90
15947;DHT22;8072;52.554;7.966;2023-11-21T00:25:28;7.00;99.90
15947;DHT22;8072;52.554;7.966;2023-11-21T00:27:54;7.00;99.90
15947;DHT22;8072;52.554;7.966;2023-11-21T00:30:19;7.00;99.90
15947;DHT22;8072;52.554;7.966;2023-11-21T00:32:47;7.00;99.90
15947;DHT22;8072;52.554;7.966;2023-11-21T00:35:13;7.00;99.90
15947;DHT22;8072;52.554;7.966;2023-11-21T00:37:39;7.00;99.90
15947;DHT22;8072;52.554;7.966;2023-11-21T00:40:05;7.00;99.90
15947;DHT22;8072;52.554;7.966;2023-11-21T00:42:32;7.00;99.90
15947;DHT22;8072;52.554;7.966;2023-11-21T00:44:59;7.00;99.90
15947;DHT22;8072;52.554;7.966;2023-11-21T00:47:25;7.00;99.90
15947;DHT22;8072;52.554;7.966;2023-11-21T00:49:51;7.00;99.90
15947;DHT22;8072;52.554;7.966;2023-11-21T00:52:16;7.00;99.90
15947;DHT22;8072;52.554;7.966;2023-11-21T00:54:42;7.00;99.90
15947;DHT22;8072;52.554;7.966;2023-11-21T00:57:08;7.00;99.90
15947;DHT22;8072;52.554;7.966;2023-11-21T00:59:35;7.00;99.90
15947;DHT22;8072;52.554;7.966;2023-11-21T01:02:01;7.00;99.90
15947;DHT22;8072;52.554;7.966;2023-11-21T01:04:27;7.00;99.90
15947;DHT22;8072;52.554;7.966;2023-11-21T01:06:53;7.00;99.90
15947;DHT22;8072;52.554;7.966;2023-11-21T01:09:19;7.00;99.90
15947;DHT22;8072;52.554;7.966;2023-11-21T01:11:44;7.00;99.90
15947;DHT22;8072;52.554;7.966;2023-11-21T01:14:12;7.10;99.90
15947;DHT22;8072;52.554;7.966;2023-11-21T01:16:39;7.10;99.90
15947;DHT22;8072;52.554;7.966;2023-11-21T01:19:04;7.10;99.90
15947;DHT22;8072;52.554;7.966;2023-11-21T01:21:30;7.10;99.90
15947;DHT22;8072;52.554;7.966;2023-11-21T01:23:56;7.10;99.90
15947;DHT22;8072;52.554;7.966;2023-11-21T01:26:22;7.20;99.90
15947;DHT22;8072;52.554;7.966;2023-11-21T01:28:48;7.20;99.90
15947;DHT22;8072;52.554;7.966;2023-11-21T01:31:15;7.20;99.90
15947;DHT22;8072;52.554;7.966;2023-11-21T01:33:41;7.20;99.90
15947;DHT22;8072;52.554;7.966;2023-11-21T01:36:07;7.20;99.90
15947;DHT22;8072;52.554;7.966;2023-11-21T01:38:33;7.20;99.90
15947;DHT22;8072;52.554;7.966;2023-11-21T01:41:00;7.20;99.90
15947;DHT22;8072;52.554;7.966;2023-11-21T01:43:29;7.30;99.90
15947;DHT22;8072;52.554;7.966;2023-11-21T01:45:57;7.30;99.90
15947;DHT22;8072;52.554;7.966;2023-11-21T01:48:27;7.30;99.90
15947;DHT22;8072;52.554;7.966;2023-11-21T01:50:53;7.30;99.90
15947;DHT22;8072;52.554;7.966;2023-11-21T01:53:18;7.40;99.90
15947;DHT22;8072;52.554;7.966;2023-11-21T01:55:46;7.40;99.90
15947;DHT22;8072;52.554;7.966;2023-11-21T01:58:12;7.40;99.90
15947;DHT22;8072;52.554;7.966;2023-11-21T02:00:38;7.50;99.90
15947;DHT22;8072;52.554;7.966;2023-11-21T02:03:04;7.50;99.90
15947;DHT22;8072;52.554;7.966;2023-11-21T02:05:30;7.60;99.90
15947;DHT22;8072;52.554;7.966;2023-11-21T02:07:56;7.60;99.90
15947;DHT22;8072;52.554;7.966;2023-11-21T02:10:22;7.60;99.90
15947;DHT22;8072;52.554;7.966;2023-11-21T02:12:51;7.60;99.90
15947;DHT22;8072;52.554;7.966;2023-11-21T02:15:17;7.60;99.90
15947;DHT22;8072;52.554;7.966;2023-11-21T02:17:47;7.60;99.90
15947;DHT22;8072;52.554;7.966;2023-11-21T02:20:17;7.70;99.90
15947;DHT22;8072;52.554;7.966;2023-11-21T02:25:27;7.60;99.90
15947;DHT22;8072;52.554;7.966;2023-11-21T02:27:54;7.70;99.90
15947;DHT22;8072;52.554;7.966;2023-11-21T02:30:21;7.60;99.90
15947;DHT22;8072;52.554;7.966;2023-11-21T02:32:48;7.60;99.90
15947;DHT22;8072;52.554;7.966;2023-11-21T02:35:14;7.60;99.90
15947;DHT22;8072;52.554;7.966;2023-11-21T02:37:41;7.60;99.90
15947;DHT22;8072;52.554;7.966;2023-11-21T02:40:09;7.60;99.90
15947;DHT22;8072;52.554;7.966;2023-11-21T02:42:39;7.60;99.90
15947;DHT22;8072;52.554;7.966;2023-11-21T02:45:07;7.60;99.90
15947;DHT22;8072;52.554;7.966;2023-11-21T02:47:33;7.60;99.90
15947;DHT22;8072;52.554;7.966;2023-11-21T02:49:59;7.70;99.90
15947;DHT22;8072;52.554;7.966;2023-11-21T02:52:26;7.60;99.90
15947;DHT22;8072;52.554;7.966;2023-11-21T02:54:51;7.70;99.90
15947;DHT22;8072;52.554;7.966;2023-11-21T02:57:19;7.60;99.90
15947;DHT22;8072;52.554;7.966;2023-11-21T02:59:44;7.60;99.90
15947;DHT22;8072;52.554;7.966;2023-11-21T03:02:10;7.70;99.90
15947;DHT22;8072;52.554;7.966;2023-11-21T03:04:36;7.70;99.90
15947;DHT22;8072;52.554;7.966;2023-11-21T03:07:02;7.70;99.90
15947;DHT22;8072;52.554;7.966;2023-11-21T03:09:27;7.70;99.90
15947;DHT22;8072;52.554;7.966;2023-11-21T03:11:54;7.70;99.90
15947;DHT22;8072;52.554;7.966;2023-11-21T03:14:21;7.70;99.90
15947;DHT22;8072;52.554;7.966;2023-11-21T03:16:48;7.70;99.90
15947;DHT22;8072;52.554;7.966;2023-11-21T03:19:14;7.70;99.90
15947;DHT22;8072;52.554;7.966;2023-11-21T03:21:41;7.70;99.90
15947;DHT22;8072;52.554;7.966;2023-11-21T03:24:07;7.70;99.90
15947;DHT22;8072;52.554;7.966;2023-11-21T03:26:33;7.70;99.90
15947;DHT22;8072;52.554;7.966;2023-11-21T03:29:00;7.70;99.90
15947;DHT22;8072;52.554;7.966;2023-11-21T03:31:26;7.70;99.90
15947;DHT22;8072;52.554;7.966;2023-11-21T03:33:52;7.70;99.90
15947;DHT22;8072;52.554;7.966;2023-11-21T03:36:19;7.70;99.90
15947;DHT22;8072;52.554;7.966;2023-11-21T03:38:45;7.70;99.90
15947;DHT22;8072;52.554;7.966;2023-11-21T03:41:11;7.70;99.90
15947;DHT22;8072;52.554;7.966;2023-11-21T03:43:37;7.70;99.90
15947;DHT22;8072;52.554;7.966;2023-11-21T03:46:03;7.70;99.90
15947;DHT22;8072;52.554;7.966;2023-11-21T03:48:29;7.70;99.90
15947;DHT22;8072;52.554;7.966;2023-11-21T03:50:55;7.70;99.90
15947;DHT22;8072;52.554;7.966;2023-11-21T03:53:21;7.70;99.90
15947;DHT22;8072;52.554;7.966;2023-11-21T03:55:47;7.70;99.90
15947;DHT22;8072;52.554;7.966;2023-11-21T03:58:13;7.70;99.90
15947;DHT22;8072;52.554;7.966;2023-11-21T04:00:39;7.70;99.90
15947;DHT22;8072;52.554;7.966;2023-11-21T04:03:05;7.70;99.90
15947;DHT22;8072;52.554;7.966;2023-11-21T04:05:31;7.70;99.90
15947;DHT22;8072;52.554;7.966;2023-11-21T04:07:57;7.70;99.90
15947;DHT22;8072;52.554;7.966;2023-11-21T04:10:23;7.70;99.90
15947;DHT22;8072;52.554;7.966;2023-11-21T04:12:49;7.70;99.90
15947;DHT22;8072;52.554;7.966;2023-11-21T04:15:15;7.70;99.90
15947;DHT22;8072;52.554;7.966;2023-11-21T04:17:41;7.70;99.90
15947;DHT22;8072;52.554;7.966;2023-11-21T04:20:08;7.70;99.90
15947;DHT22;8072;52.554;7.966;2023-11-21T04:22:42;7.70;99.90
15947;DHT22;8072;52.554;7.966;2023-11-21T04:25:14;7.70;99.90
15947;DHT22;8072;52.554;7.966;2023-11-21T04:27:42;7.70;99.90
15947;DHT22;8072;52.554;7.966;2023-11-21T04:30:11;7.70;99.90
15947;DHT22;8072;52.554;7.966;2023-11-21T04:32:37;7.80;99.90
15947;DHT22;8072;52.554;7.966;2023-11-21T04:35:05;7.80;99.90
15947;DHT22;8072;52.554;7.966;2023-11-21T04:37:31;7.80;99.90
15947;DHT22;8072;52.554;7.966;2023-11-21T04:39:57;7.80;99.90
15947;DHT22;8072;52.554;7.966;2023-11-21T04:42:22;7.80;99.90
15947;DHT22;8072;52.554;7.966;2023-11-21T04:44:49;7.80;99.90
15947;DHT22;8072;52.554;7.966;2023-11-21T04:47:15;7.80;99.90
15947;DHT22;8072;52.554;7.966;2023-11-21T04:49:45;7.80;99.90
15947;DHT22;8072;52.554;7.966;2023-11-21T04:52:12;7.80;99.90
15947;DHT22;8072;52.554;7.966;2023-11-21T04:54:38;7.80;99.90
15947;DHT22;8072;52.554;7.966;2023-11-21T04:57:05;7.80;99.90
15947;DHT22;8072;52.554;7.966;2023-11-21T04:59:33;7.80;99.90
15947;DHT22;8072;52.554;7.966;2023-11-21T05:01:59;7.80;99.90
15947;DHT22;8072;52.554;7.966;2023-11-21T05:04:28;7.80;99.90
15947;DHT22;8072;52.554;7.966;2023-11-21T05:06:54;7.90;99.90
15947;DHT22;8072;52.554;7.966;2023-11-21T05:09:20;7.90;99.90
15947;DHT22;8072;52.554;7.966;2023-11-21T05:11:47;7.90;99.90
15947;DHT22;8072;52.554;7.966;2023-11-21T05:14:13;7.90;99.90
15947;DHT22;8072;52.554;7.966;2023-11-21T05:16:39;7.90;99.90
15947;DHT22;8072;52.554;7.966;2023-11-21T05:19:05;7.90;99.90
15947;DHT22;8072;52.554;7.966;2023-11-21T05:21:32;7.90;99.90
15947;DHT22;8072;52.554;7.966;2023-11-21T05:23:58;7.90;99.90
15947;DHT22;8072;52.554;7.966;2023-11-21T05:26:24;7.90;99.90
15947;DHT22;8072;52.554;7.966;2023-11-21T05:28:50;7.90;99.90
15947;DHT22;8072;52.554;7.966;2023-11-21T05:31:15;7.90;99.90
15947;DHT22;8072;52.554;7.966;2023-11-21T05:33:41;7.90;99.90
15947;DHT22;8072;52.554;7.966;2023-11-21T05:36:07;7.90;99.90
15947;DHT22;8072;52.554;7.966;2023-11-21T05:38:36;7.90;99.90
15947;DHT22;8072;52.554;7.966;2023-11-21T05:41:02;7.90;99.90
15947;DHT22;8072;52.554;7.966;2023-11-21T05:43:29;7.90;99.90
15947;DHT22;8072;52.554;7.966;2023-11-21T05:45:56;7.90;99.90
15947;DHT22;8072;52.554;7.966;2023-11-21T05:48:22;7.90;99.90
15947;DHT22;8072;52.554;7.966;2023-11-21T05:50:49;7.90;99.90
15947;DHT22;8072;52.554;7.966;2023-11-21T05:53:15;7.90;99.90
15947;DHT22;8072;52.554;7.966;2023-11-21T05:55:41;7.90;99.90
15947;DHT22;8072;52.554;7.966;2023-11-21T05:58:08;7.90;99.90
15947;DHT22;8072;52.554;7.966;2023-11-21T06:00:33;7.90;99.90
15947;DHT22;8072;52.554;7.966;2023-11-21T06:02:59;7.90;99.90
15947;DHT22;8072;52.554;7.966;2023-11-21T06:05:26;7.90;99.90
15947;DHT22;8072;52.554;7.966;2023-11-21T06:07:53;8.00;99.90
15947;DHT22;8072;52.554;7.966;2023-11-21T06:10:21;7.90;99.90
15947;DHT22;8072;52.554;7.966;2023-11-21T06:12:47;7.90;99.90
15947;DHT22;8072;52.554;7.966;2023-11-21T06:15:13;7.90;99.90
15947;DHT22;8072;52.554;7.966;2023-11-21T06:17:40;7.90;99.90
15947;DHT22;8072;52.554;7.966;2023-11-21T06:20:08;7.90;99.90
15947;DHT22;8072;52.554;7.966;2023-11-21T06:22:40;7.90;99.90
15947;DHT22;8072;52.554;7.966;2023-11-21T06:25:07;7.90;99.90
15947;DHT22;8072;52.554;7.966;2023-11-21T06:27:45;8.00;99.90
15947;DHT22;8072;52.554;7.966;2023-11-21T06:30:12;8.00;99.90
15947;DHT22;8072;52.554;7.966;2023-11-21T06:32:39;7.90;99.90
15947;DHT22;8072;52.554;7.966;2023-11-21T06:35:06;8.00;99.90
15947;DHT22;8072;52.554;7.966;2023-11-21T06:37:32;8.00;99.90
15947;DHT22;8072;52.554;7.966;2023-11-21T06:39:59;8.00;99.90
15947;DHT22;8072;52.554;7.966;2023-11-21T06:42:26;8.00;99.90
15947;DHT22;8072;52.554;7.966;2023-11-21T06:44:52;8.00;99.90
15947;DHT22;8072;52.554;7.966;2023-11-21T06:47:20;8.00;99.90
15947;DHT22;8072;52.554;7.966;2023-11-21T06:49:46;8.00;99.90
15947;DHT22;8072;52.554;7.966;2023-11-21T06:52:13;8.00;99.90
15947;DHT22;8072;52.554;7.966;2023-11-21T06:54:39;8.00;99.90
15947;DHT22;8072;52.554;7.966;2023-11-21T06:57:05;8.00;99.90
15947;DHT22;8072;52.554;7.966;2023-11-21T06:59:31;8.00;99.90
15947;DHT22;8072;52.554;7.966;2023-11-21T07:01:57;8.10;99.90
15947;DHT22;8072;52.554;7.966;2023-11-21T07:04:23;8.00;99.90
15947;DHT22;8072;52.554;7.966;2023-11-21T07:06:53;8.00;99.90
15947;DHT22;8072;52.554;7.966;2023-11-21T07:09:19;8.10;99.90
15947;DHT22;8072;52.554;7.966;2023-11-21T07:11:50;8.10;99.90
15947;DHT22;8072;52.554;7.966;2023-11-21T07:14:17;8.10;99.90
15947;DHT22;8072;52.554;7.966;2023-11-21T07:16:45;8.10;99.90
15947;DHT22;8072;52.554;7.966;2023-11-21T07:19:11;8.10;99.90
15947;DHT22;8072;52.554;7.966;2023-11-21T07:21:38;8.10;99.90
15947;DHT22;8072;52.554;7.966;2023-11-21T07:24:05;8.10;99.90
15947;DHT22;8072;52.554;7.966;2023-11-21T07:26:32;8.10;99.90
15947;DHT22;8072;52.554;7.966;2023-11-21T07:28:59;8.10;99.90
15947;DHT22;8072;52.554;7.966;2023-11-21T07:31:25;8.10;99.90
15947;DHT22;8072;52.554;7.966;2023-11-21T07:33:51;8.10;99.90
15947;DHT22;8072;52.554;7.966;2023-11-21T07:36:18;8.10;99.90
15947;DHT22;8072;52.554;7.966;2023-11-21T07:38:44;8.20;99.90
15947;DHT22;8072;52.554;7.966;2023-11-21T07:41:11;8.20;99.90
15947;DHT22;8072;52.554;7.966;2023-11-21T07:43:37;8.20;99.90
15947;DHT22;8072;52.554;7.966;2023-11-21T07:46:03;8.20;99.90
15947;DHT22;8072;52.554;7.966;2023-11-21T07:48:33;8.20;99.90
15947;DHT22;8072;52.554;7.966;2023-11-21T07:51:03;8.30;99.90
15947;DHT22;8072;52.554;7.966;2023-11-21T07:53:35;8.30;99.90
15947;DHT22;8072;52.554;7.966;2023-11-21T07:56:08;8.30;99.90
15947;DHT22;8072;52.554;7.966;2023-11-21T07:58:35;8.30;99.90
15947;DHT22;8072;52.554;7.966;2023-11-21T08:01:01;8.30;99.90
15947;DHT22;8072;52.554;7.966;2023-11-21T08:03:27;8.40;99.90
15947;DHT22;8072;52.554;7.966;2023-11-21T08:05:55;8.30;99.90
15947;DHT22;8072;52.554;7.966;2023-11-21T08:08:20;8.40;99.90
15947;DHT22;8072;52.554;7.966;2023-11-21T08:10:46;8.40;99.90
15947;DHT22;8072;52.554;7.966;2023-11-21T08:13:14;8.40;99.90
15947;DHT22;8072;52.554;7.966;2023-11-21T08:15:41;8.40;99.90
15947;DHT22;8072;52.554;7.966;2023-11-21T08:18:11;8.40;99.90
15947;DHT22;8072;52.554;7.966;2023-11-21T08:20:38;8.40;99.90
15947;DHT22;8072;52.554;7.966;2023-11-21T08:23:05;8.30;99.90
15947;DHT22;8072;52.554;7.966;2023-11-21T08:25:32;8.30;99.90
15947;DHT22;8072;52.554;7.966;2023-11-21T08:27:58;8.30;99.90
15947;DHT22;8072;52.554;7.966;2023-11-21T08:30:25;8.30;99.90
15947;DHT22;8072;52.554;7.966;2023-11-21T08:32:51;8.20;99.90
15947;DHT22;8072;52.554;7.966;2023-11-21T08:35:19;8.20;99.90
15947;DHT22;8072;52.554;7.966;2023-11-21T08:37:45;8.20;99.90
15947;DHT22;8072;52.554;7.966;2023-11-21T08:40:12;8.10;99.90
15947;DHT22;8072;52.554;7.966;2023-11-21T08:42:42;8.10;99.90
15947;DHT22;8072;52.554;7.966;2023-11-21T08:45:08;8.10;99.90
15947;DHT22;8072;52.554;7.966;2023-11-21T08:47:35;8.10;99.90
15947;DHT22;8072;52.554;7.966;2023-11-21T08:50:02;8.10;99.90
15947;DHT22;8072;52.554;7.966;2023-11-21T08:52:28;8.10;99.90
15947;DHT22;8072;52.554;7.966;2023-11-21T08:54:54;8.10;99.90
15947;DHT22;8072;52.554;7.966;2023-11-21T08:57:22;8.10;99.90
15947;DHT22;8072;52.554;7.966;2023-11-21T08:59:48;8.10;99.90
15947;DHT22;8072;52.554;7.966;2023-11-21T09:02:14;8.10;99.90
15947;DHT22;8072;52.554;7.966;2023-11-21T09:04:39;8.20;99.90
15947;DHT22;8072;52.554;7.966;2023-11-21T09:07:05;8.10;99.90
15947;DHT22;8072;52.554;7.966;2023-11-21T09:09:31;8.10;99.90
15947;DHT22;8072;52.554;7.966;2023-11-21T09:11:56;8.00;99.90
15947;DHT22;8072;52.554;7.966;2023-11-21T09:14:22;8.10;99.90
15947;DHT22;8072;52.554;7.966;2023-11-21T09:16:49;8.10;99.90
15947;DHT22;8072;52.554;7.966;2023-11-21T09:19:16;8.10;99.90
15947;DHT22;8072;52.554;7.966;2023-11-21T09:21:41;8.10;99.90
15947;DHT22;8072;52.554;7.966;2023-11-21T09:24:07;8.00;99.90
15947;DHT22;8072;52.554;7.966;2023-11-21T09:26:34;8.00;99.90
15947;DHT22;8072;52.554;7.966;2023-11-21T09:29:00;8.10;99.90
15947;DHT22;8072;52.554;7.966;2023-11-21T09:31:27;8.10;99.90
15947;DHT22;8072;52.554;7.966;2023-11-21T09:33:53;8.10;99.90
15947;DHT22;8072;52.554;7.966;2023-11-21T09:36:19;8.00;99.90
15947;DHT22;8072;52.554;7.966;2023-11-21T09:38:47;8.00;99.90
15947;DHT22;8072;52.554;7.966;2023-11-21T09:41:37;8.00;99.90
15947;DHT22;8072;52.554;7.966;2023-11-21T09:44:09;7.90;99.90
15947;DHT22;8072;52.554;7.966;2023-11-21T09:46:40;7.90;99.90
15947;DHT22;8072;52.554;7.966;2023-11-21T09:49:09;7.80;99.90
15947;DHT22;8072;52.554;7.966;2023-11-21T09:51:42;7.80;99.90
15947;DHT22;8072;52.554;7.966;2023-11-21T09:54:10;7.80;99.90
15947;DHT22;8072;52.554;7.966;2023-11-21T09:56:39;7.80;99.90
15947;DHT22;8072;52.554;7.966;2023-11-21T09:59:06;7.80;99.90
15947;DHT22;8072;52.554;7.966;2023-11-21T10:01:36;7.80;99.90
15947;DHT22;8072;52.554;7.966;2023-11-21T10:04:03;7.80;99.90
15947;DHT22;8072;52.554;7.966;2023-11-21T10:06:30;7.80;99.90
15947;DHT22;8072;52.554;7.966;2023-11-21T10:08:57;7.80;99.90
15947;DHT22;8072;52.554;7.966;2023-11-21T10:11:27;7.80;99.90
15947;DHT22;8072;52.554;7.966;2023-11-21T10:13:55;7.80;99.90
15947;DHT22;8072;52.554;7.966;2023-11-21T10:16:25;7.80;99.90
15947;DHT22;8072;52.554;7.966;2023-11-21T10:18:52;7.80;99.90
15947;DHT22;8072;52.554;7.966;2023-11-21T10:21:21;7.90;99.90
15947;DHT22;8072;52.554;7.966;2023-11-21T10:23:47;7.80;99.90
15947;DHT22;8072;52.554;7.966;2023-11-21T10:26:13;7.80;99.90
15947;DHT22;8072;52.554;7.966;2023-11-21T10:28:55;7.90;99.90
15947;DHT22;8072;52.554;7.966;2023-11-21T10:31:23;7.90;99.90
15947;DHT22;8072;52.554;7.966;2023-11-21T10:33:50;7.80;99.90
15947;DHT22;8072;52.554;7.966;2023-11-21T10:36:27;7.80;99.90
15947;DHT22;8072;52.554;7.966;2023-11-21T10:38:54;7.80;99.90
15947;DHT22;8072;52.554;7.966;2023-11-21T10:41:23;7.80;99.90
15947;DHT22;8072;52.554;7.966;2023-11-21T10:43:48;7.90;99.90
15947;DHT22;8072;52.554;7.966;2023-11-21T10:46:15;7.90;99.90
15947;DHT22;8072;52.554;7.966;2023-11-21T10:48:42;8.00;99.90
15947;DHT22;8072;52.554;7.966;2023-11-21T10:51:08;8.00;99.90
15947;DHT22;8072;52.554;7.966;2023-11-21T10:53:39;8.00;99.90
15947;DHT22;8072;52.554;7.966;2023-11-21T10:56:08;8.00;99.90
15947;DHT22;8072;52.554;7.966;2023-11-21T10:58:43;8.10;99.90
15947;DHT22;8072;52.554;7.966;2023-11-21T11:01:09;8.10;99.90
15947;DHT22;8072;52.554;7.966;2023-11-21T11:03:38;8.00;99.90
15947;DHT22;8072;52.554;7.966;2023-11-21T11:06:05;8.00;99.90
15947;DHT22;8072;52.554;7.966;2023-11-21T11:08:34;8.10;99.90
15947;DHT22;8072;52.554;7.966;2023-11-21T11:11:01;8.00;99.90
15947;DHT22;8072;52.554;7.966;2023-11-21T11:13:26;8.10;99.90
15947;DHT22;8072;52.554;7.966;2023-11-21T11:15:58;8.00;99.90
15947;DHT22;8072;52.554;7.966;2023-11-21T11:18:30;8.10;99.90
15947;DHT22;8072;52.554;7.966;2023-11-21T11:21:27;8.10;99.90
15947;DHT22;8072;52.554;7.966;2023-11-21T11:26:40;8.10;99.90
15947;DHT22;8072;52.554;7.966;2023-11-21T11:32:07;8.10;99.90
15947;DHT22;8072;52.554;7.966;2023-11-21T11:34:39;8.10;99.90
15947;DHT22;8072;52.554;7.966;2023-11-21T11:37:08;8.10;99.90
15947;DHT22;8072;52.554;7.966;2023-11-21T11:39:39;8.10;99.90
15947;DHT22;8072;52.554;7.966;2023-11-21T11:42:11;8.10;99.90
15947;DHT22;8072;52.554;7.966;2023-11-21T11:50:02;8.20;99.90
15947;DHT22;8072;52.554;7.966;2023-11-21T11:52:52;8.20;99.90
15947;DHT22;8072;52.554;7.966;2023-11-21T11:55:24;8.20;99.90
15947;DHT22;8072;52.554;7.966;2023-11-21T11:57:52;8.20;99.90
15947;DHT22;8072;52.554;7.966;2023-11-21T12:02:58;8.10;99.90
15947;DHT22;8072;52.554;7.966;2023-11-21T12:05:26;8.10;99.90
15947;DHT22;8072;52.554;7.966;2023-11-21T12:07:57;8.10;99.90
15947;DHT22;8072;52.554;7.966;2023-11-21T12:10:24;8.10;99.90
15947;DHT22;8072;52.554;7.966;2023-11-21T12:12:58;8.20;99.90
15947;DHT22;8072;52.554;7.966;2023-11-21T12:15:25;8.10;99.90
15947;DHT22;8072;52.554;7.966;2023-11-21T12:17:52;8.10;99.90
15947;DHT22;8072;52.554;7.966;2023-11-21T12:20:20;8.10;99.90
15947;DHT22;8072;52.554;7.966;2023-11-21T12:22:51;8.10;99.90
15947;DHT22;8072;52.554;7.966;2023-11-21T12:27:48;8.10;99.90
15947;DHT22;8072;52.554;7.966;2023-11-21T12:30:16;8.10;99.90
15947;DHT22;8072;52.554;7.966;2023-11-21T12:32:49;8.10;99.90
15947;DHT22;8072;52.554;7.966;2023-11-21T12:35:17;8.10;99.90
15947;DHT22;8072;52.554;7.966;2023-11-21T12:37:47;8.10;99.90
15947;DHT22;8072;52.554;7.966;2023-11-21T12:40:14;8.10;99.90
15947;DHT22;8072;52.554;7.966;2023-11-21T12:42:44;8.10;99.90
15947;DHT22;8072;52.554;7.966;2023-11-21T12:47:50;8.10;99.90
15947;DHT22;8072;52.554;7.966;2023-11-21T12:50:22;8.10;99.90
15947;DHT22;8072;52.554;7.966;2023-11-21T12:52:58;8.10;99.90
15947;DHT22;8072;52.554;7.966;2023-11-21T12:55:25;8.20;99.90
15947;DHT22;8072;52.554;7.966;2023-11-21T12:57:56;8.20;99.90
15947;DHT22;8072;52.554;7.966;2023-11-21T13:00:32;8.10;99.90
15947;DHT22;8072;52.554;7.966;2023-11-21T13:02:59;8.10;99.90
15947;DHT22;8072;52.554;7.966;2023-11-21T13:07:57;8.10;99.90
15947;DHT22;8072;52.554;7.966;2023-11-21T13:10:24;8.10;99.90
15947;DHT22;8072;52.554;7.966;2023-11-21T13:12:57;8.10;99.90
15947;DHT22;8072;52.554;7.966;2023-11-21T13:15:27;8.10;99.90
15947;DHT22;8072;52.554;7.966;2023-11-21T13:17:54;8.00;99.90
15947;DHT22;8072;52.554;7.966;2023-11-21T13:20:20;8.10;99.90
15947;DHT22;8072;52.554;7.966;2023-11-21T13:22:50;8.00;99.90
15947;DHT22;8072;52.554;7.966;2023-11-21T13:25:21;8.00;99.90
15947;DHT22;8072;52.554;7.966;2023-11-21T13:27:47;8.00;99.90
15947;DHT22;8072;52.554;7.966;2023-11-21T13:30:14;8.00;99.90
15947;DHT22;8072;52.554;7.966;2023-11-21T13:32:48;8.00;99.90
15947;DHT22;8072;52.554;7.966;2023-11-21T13:35:20;8.00;99.90
15947;DHT22;8072;52.554;7.966;2023-11-21T13:37:52;8.00;99.90
15947;DHT22;8072;52.554;7.966;2023-11-21T13:40:22;7.90;99.90
15947;DHT22;8072;52.554;7.966;2023-11-21T13:42:53;7.90;99.90
15947;DHT22;8072;52.554;7.966;2023-11-21T13:45:22;7.90;99.90
15947;DHT22;8072;52.554;7.966;2023-11-21T13:47:50;7.90;99.90
15947;DHT22;8072;52.554;7.966;2023-11-21T13:50:26;7.90;99.90
15947;DHT22;8072;52.554;7.966;2023-11-21T13:52:55;7.90;99.90
15947;DHT22;8072;52.554;7.966;2023-11-21T13:55:21;7.90;99.90
15947;DHT22;8072;52.554;7.966;2023-11-21T13:57:50;7.90;99.90
15947;DHT22;8072;52.554;7.966;2023-11-21T14:00:18;7.90;99.90
15947;DHT22;8072;52.554;7.966;2023-11-21T14:03:03;7.90;99.90
15947;DHT22;8072;52.554;7.966;2023-11-21T14:05:34;7.90;99.90
15947;DHT22;8072;52.554;7.966;2023-11-21T14:08:00;7.80;99.90
15947;DHT22;8072;52.554;7.966;2023-11-21T14:10:31;7.90;99.90
15947;DHT22;8072;52.554;7.966;2023-11-21T14:13:10;7.90;99.90
15947;DHT22;8072;52.554;7.966;2023-11-21T14:15:36;7.90;99.90
15947;DHT22;8072;52.554;7.966;2023-11-21T14:18:10;7.90;99.90
15947;DHT22;8072;52.554;7.966;2023-11-21T14:20:38;7.90;99.90
15947;DHT22;8072;52.554;7.966;2023-11-21T14:23:05;7.90;99.90
15947;DHT22;8072;52.554;7.966;2023-11-21T14:25:36;7.80;99.90
15947;DHT22;8072;52.554;7.966;2023-11-21T14:28:05;7.80;99.90
15947;DHT22;8072;52.554;7.966;2023-11-21T14:30:34;7.80;99.90
15947;DHT22;8072;52.554;7.966;2023-11-21T14:33:02;7.80;99.90
15947;DHT22;8072;52.554;7.966;2023-11-21T14:35:28;7.70;99.90
15947;DHT22;8072;52.554;7.966;2023-11-21T14:37:58;7.70;99.90
15947;DHT22;8072;52.554;7.966;2023-11-21T14:40:25;7.70;99.90
15947;DHT22;8072;52.554;7.966;2023-11-21T14:42:51;7.80;99.90
15947;DHT22;8072;52.554;7.966;2023-11-21T14:45:19;7.70;99.90
15947;DHT22;8072;52.554;7.966;2023-11-21T14:47:48;7.70;99.90
15947;DHT22;8072;52.554;7.966;2023-11-21T14:50:25;7.70;99.90
15947;DHT22;8072;52.554;7.966;2023-11-21T14:53:11;7.70;99.90
15947;DHT22;8072;52.554;7.966;2023-11-21T14:55:39;7.70;99.90
15947;DHT22;8072;52.554;7.966;2023-11-21T14:58:17;7.70;99.90
15947;DHT22;8072;52.554;7.966;2023-11-21T15:00:58;7.70;99.90
15947;DHT22;8072;52.554;7.966;2023-11-21T15:03:25;7.70;99.90
15947;DHT22;8072;52.554;7.966;2023-11-21T15:06:01;7.70;99.90
15947;DHT22;8072;52.554;7.966;2023-11-21T15:08:51;7.70;99.90
15947;DHT22;8072;52.554;7.966;2023-11-21T15:11:43;7.70;99.90
15947;DHT22;8072;52.554;7.966;2023-11-21T15:14:09;7.70;99.90
15947;DHT22;8072;52.554;7.966;2023-11-21T15:16:38;7.60;99.90
15947;DHT22;8072;52.554;7.966;2023-11-21T15:19:07;7.60;99.90
15947;DHT22;8072;52.554;7.966;2023-11-21T15:21:36;7.60;99.90
15947;DHT22;8072;52.554;7.966;2023-11-21T15:24:02;7.60;99.90
15947;DHT22;8072;52.554;7.966;2023-11-21T15:26:28;7.60;99.90
15947;DHT22;8072;52.554;7.966;2023-11-21T15:28:55;7.60;99.90
15947;DHT22;8072;52.554;7.966;2023-11-21T15:31:21;7.50;99.90
15947;DHT22;8072;52.554;7.966;2023-11-21T15:33:52;7.50;99.90
15947;DHT22;8072;52.554;7.966;2023-11-21T15:36:26;7.50;99.90
15947;DHT22;8072;52.554;7.966;2023-11-21T15:38:53;7.50;99.90
15947;DHT22;8072;52.554;7.966;2023-11-21T15:41:19;7.50;99.90
15947;DHT22;8072;52.554;7.966;2023-11-21T15:43:45;7.50;99.90
15947;DHT22;8072;52.554;7.966;2023-11-21T15:46:11;7.50;99.90
15947;DHT22;8072;52.554;7.966;2023-11-21T15:48:37;7.50;99.90
15947;DHT22;8072;52.554;7.966;2023-11-21T15:51:06;7.50;99.90
15947;DHT22;8072;52.554;7.966;2023-11-21T15:53:35;7.50;99.90
15947;DHT22;8072;52.554;7.966;2023-11-21T15:56:04;7.50;99.90
15947;DHT22;8072;52.554;7.966;2023-11-21T15:58:29;7.50;99.90
15947;DHT22;8072;52.554;7.966;2023-11-21T16:00:55;7.50;99.90
15947;DHT22;8072;52.554;7.966;2023-11-21T16:03:23;7.40;99.90
15947;DHT22;8072;52.554;7.966;2023-11-21T16:05:49;7.40;99.90
15947;DHT22;8072;52.554;7.966;2023-11-21T16:08:14;7.30;99.90
15947;DHT22;8072;52.554;7.966;2023-11-21T16:10:42;7.30;99.90
15947;DHT22;8072;52.554;7.966;2023-11-21T16:13:08;7.30;99.90
15947;DHT22;8072;52.554;7.966;2023-11-21T16:15:34;7.30;99.90
15947;DHT22;8072;52.554;7.966;2023-11-21T16:17:59;7.20;99.90
15947;DHT22;8072;52.554;7.966;2023-11-21T16:20:25;7.20;99.90
15947;DHT22;8072;52.554;7.966;2023-11-21T16:22:51;7.20;99.90
15947;DHT22;8072;52.554;7.966;2023-11-21T16:25:17;7.20;99.90
15947;DHT22;8072;52.554;7.966;2023-11-21T16:27:43;7.20;99.90
15947;DHT22;8072;52.554;7.966;2023-11-21T16:30:09;7.20;99.90